createdAt,value
2019-05-21T00:02:34.495Z,92
2019-05-21T00:07:49.836Z,91
2019-05-21T00:13:04.760Z,91
2019-05-21T00:18:22.546Z,91
2019-05-21T00:23:37.784Z,90
2019-05-21T00:28:52.345Z,90
2019-05-21T00:34:08.004Z,90
2019-05-21T00:39:23.946Z,91
2019-05-21T00:44:38.387Z,91
2019-05-21T00:49:55.743Z,91
2019-05-21T00:55:10.907Z,91
2019-05-21T01:00:25.817Z,91
2019-05-21T01:05:40.869Z,91
2019-05-21T01:10:56.715Z,91
2019-05-21T01:16:12.856Z,92
2019-05-21T01:21:29.280Z,92
2019-05-21T01:26:46.502Z,93
2019-05-21T01:32:01.111Z,93
2019-05-21T01:37:16.044Z,92
2019-05-21T01:42:31.135Z,92
2019-05-21T01:47:47.681Z,92
2019-05-21T01:53:03.394Z,92
2019-05-21T01:58:17.910Z,92
2019-05-21T02:03:35.716Z,92
2019-05-21T02:08:52.112Z,92
2019-05-21T02:14:09.358Z,92
2019-05-21T02:19:24.425Z,92
2019-05-21T02:24:39.124Z,92
2019-05-21T02:29:55.077Z,92
2019-05-21T02:35:11.401Z,92
2019-05-21T02:40:26.873Z,92
2019-05-21T02:45:42.527Z,92
2019-05-21T02:51:01.428Z,92
2019-05-21T02:56:15.349Z,92
2019-05-21T03:01:32.271Z,92
2019-05-21T03:06:47.896Z,93
2019-05-21T03:12:05.893Z,94
2019-05-21T03:17:21.290Z,93
2019-05-21T03:22:38.525Z,94
2019-05-21T03:27:51.348Z,94
2019-05-21T03:33:07.812Z,95
2019-05-21T03:38:23.295Z,95
2019-05-21T03:43:38.924Z,95
2019-05-21T03:48:53.727Z,95
2019-05-21T03:54:08.942Z,94
2019-05-21T03:59:24.314Z,93
2019-05-21T04:04:39.031Z,93
2019-05-21T04:09:55.185Z,93
2019-05-21T04:15:12.057Z,92
2019-05-21T04:20:28.613Z,93
2019-05-21T04:25:45.883Z,94
2019-05-21T04:31:01.154Z,94
2019-05-21T04:36:16.705Z,94
2019-05-21T04:41:33.491Z,94
2019-05-21T04:46:48.621Z,93
2019-05-21T04:52:04.025Z,92
2019-05-21T04:57:19.991Z,91
2019-05-21T05:02:36.096Z,90
2019-05-21T05:07:52.933Z,85
2019-05-21T05:13:10.579Z,81
2019-05-21T05:18:28.250Z,75
2019-05-21T05:23:44.733Z,72
2019-05-21T05:29:02.382Z,69
2019-05-21T05:39:31.534Z,66
2019-05-21T05:44:48.006Z,64
2019-05-21T06:38:18.813Z,68
2019-05-21T06:43:32.825Z,66
2019-05-21T06:59:14.335Z,67
2019-05-21T06:59:51.446Z,67
2019-05-21T07:05:35.120Z,67
2019-05-21T07:10:52.273Z,67
2019-05-21T07:16:09.045Z,65
2019-05-21T07:21:24.573Z,67
2019-05-21T07:26:40.613Z,65
2019-05-21T07:31:57.165Z,65
2019-05-21T07:37:16.209Z,65
2019-05-21T07:53:00.300Z,63
2019-05-21T07:58:18.507Z,64
2019-05-21T08:03:37.561Z,64
2019-05-21T08:14:07.329Z,63
2019-05-21T08:19:22.368Z,61
2019-05-21T08:24:39.594Z,61
2019-05-21T08:29:57.874Z,59
2019-05-21T08:35:14.231Z,59
2019-05-21T08:40:31.360Z,57
2019-05-21T08:45:49.024Z,57
2019-05-21T08:51:08.113Z,57
2019-05-21T08:56:22.349Z,58
2019-05-21T09:01:40.167Z,54
2019-05-21T09:12:12.803Z,55
2019-05-21T09:17:31.274Z,54
2019-05-21T09:22:50.162Z,53
2019-05-21T09:38:35.804Z,51
2019-05-21T09:43:52.735Z,51
2019-05-21T09:49:10.549Z,49
2019-05-21T09:54:28.961Z,49
2019-05-21T10:05:02.169Z,52
2019-05-21T10:10:21.462Z,50
2019-05-21T10:15:37.424Z,50
2019-05-21T10:26:05.792Z,50
2019-05-21T10:41:52.404Z,48
2019-05-21T10:47:08.443Z,51
2019-05-21T11:02:52.259Z,51
2019-05-21T11:08:25.886Z,51
2019-05-21T11:18:52.112Z,50
2019-05-21T11:24:08.879Z,48
2019-05-21T11:34:39.330Z,48
2019-05-21T11:45:08.621Z,48
2019-05-21T11:51:00.555Z,47
2019-05-21T11:56:17.891Z,47
2019-05-21T12:01:34.298Z,48
2019-05-21T12:06:50.098Z,48
2019-05-21T12:17:19.939Z,46
2019-05-21T12:33:06.645Z,47
2019-05-21T12:38:24.236Z,46
2019-05-21T12:43:42.728Z,44
2019-05-21T12:49:01.021Z,45
2019-05-21T12:54:21.047Z,42
2019-05-21T12:59:39.930Z,41
2019-05-21T13:04:55.501Z,40
2019-05-21T13:10:12.825Z,39
2019-05-21T13:15:28.997Z,38
2019-05-21T13:36:28.430Z,36
2019-05-21T15:36:52.209Z,32
2019-05-21T15:42:08.102Z,32
2019-05-21T16:23:57.940Z,34
2019-05-21T17:52:50.326Z,48
2019-05-21T18:03:18.852Z,49
2019-05-21T18:08:34.956Z,50
2019-05-21T18:13:50.928Z,51
2019-05-21T18:19:08.962Z,51
2019-05-21T18:24:25.035Z,52
2019-05-21T18:29:40.810Z,52
2019-05-21T18:34:55.167Z,53
2019-05-21T18:40:13.786Z,52
2019-05-21T18:50:45.372Z,54
2019-05-21T18:56:02.661Z,54
2019-05-21T19:01:18.460Z,55
2019-05-21T19:06:38.365Z,55
2019-05-21T19:11:58.644Z,56
2019-05-21T19:17:15.851Z,56
2019-05-21T19:22:32.716Z,57
2019-05-21T19:27:49.577Z,57
2019-05-21T19:33:09.269Z,57
2019-05-21T19:38:26.073Z,57
2019-05-21T19:43:42.115Z,58
2019-05-21T19:48:59.465Z,58
2019-05-21T19:54:18.536Z,58
2019-05-21T19:59:33.307Z,59
2019-05-21T20:04:46.718Z,59
2019-05-21T20:10:05.808Z,59
2019-05-21T20:15:24.652Z,60
2019-05-21T20:20:41.294Z,61
2019-05-21T20:25:59.773Z,62
2019-05-21T20:31:16.248Z,61
2019-05-21T20:36:33.579Z,61
2019-05-21T20:41:51.071Z,62
2019-05-21T20:47:07.483Z,63
2019-05-21T20:52:21.337Z,63
2019-05-21T20:57:38.318Z,64
2019-05-21T21:02:53.507Z,64
2019-05-21T21:08:08.861Z,64
2019-05-21T21:13:26.580Z,65
2019-05-21T21:18:44.174Z,65
2019-05-21T21:24:01.619Z,66
2019-05-21T21:29:18.844Z,65
2019-05-21T21:34:36.712Z,66
2019-05-21T21:39:53.840Z,65
2019-05-21T21:45:11.454Z,66
2019-05-21T21:50:27.206Z,68
2019-05-21T21:55:43.733Z,68
2019-05-21T22:01:00.114Z,68
2019-05-21T22:06:14.722Z,69
2019-05-21T22:11:33.267Z,69
2019-05-21T22:16:52.294Z,69
2019-05-21T22:22:07.166Z,68
2019-05-21T22:27:26.914Z,68
2019-05-21T22:32:45.216Z,68
2019-05-21T22:38:03.535Z,69
2019-05-21T22:43:21.321Z,69
2019-05-21T22:48:40.637Z,69
2019-05-21T22:59:12.473Z,71
2019-05-21T23:04:28.238Z,71
2019-05-21T23:09:43.616Z,72
2019-05-21T23:14:59.065Z,73
2019-05-21T23:20:15.535Z,74
2019-05-21T23:25:32.093Z,74
2019-05-21T23:30:47.493Z,74
2019-05-21T23:36:02.530Z,75
2019-05-21T23:41:17.505Z,74
2019-05-21T23:46:32.482Z,75
2019-05-21T23:51:47.940Z,77
2019-05-21T23:57:03.105Z,78
